sensor_id;sensor_type;location;lat;lon;timestamp;temperature;humidity
15355;DHT22;7777;52.254;9.618;2023-11-19T00:00:25;7.60;99.90
15355;DHT22;7777;52.254;9.618;2023-11-19T00:02:51;7.60;99.90
15355;DHT22;7777;52.254;9.618;2023-11-19T00:05:17;7.60;99.90
15355;DHT22;7777;52.254;9.618;2023-11-19T00:07:43;7.60;99.90
15355;DHT22;7777;52.254;9.618;2023-11-19T00:10:15;7.60;99.90
15355;DHT22;7777;52.254;9.618;2023-11-19T00:12:46;7.70;99.90
15355;DHT22;7777;52.254;9.618;2023-11-19T00:15:13;7.70;99.90
15355;DHT22;7777;52.254;9.618;2023-11-19T00:17:44;7.70;99.90
15355;DHT22;7777;52.254;9.618;2023-11-19T00:20:12;7.80;99.90
15355;DHT22;7777;52.254;9.618;2023-11-19T00:22:39;7.80;99.90
15355;DHT22;7777;52.254;9.618;2023-11-19T00:25:06;7.80;99.90
15355;DHT22;7777;52.254;9.618;2023-11-19T00:27:32;7.90;99.90
15355;DHT22;7777;52.254;9.618;2023-11-19T00:29:58;7.90;99.90
15355;DHT22;7777;52.254;9.618;2023-11-19T00:32:23;7.90;99.90
15355;DHT22;7777;52.254;9.618;2023-11-19T00:34:49;7.90;99.90
15355;DHT22;7777;52.254;9.618;2023-11-19T00:37:15;8.00;99.90
15355;DHT22;7777;52.254;9.618;2023-11-19T00:39:42;8.00;99.90
15355;DHT22;7777;52.254;9.618;2023-11-19T00:42:09;8.00;99.90
15355;DHT22;7777;52.254;9.618;2023-11-19T00:44:36;8.00;99.90
15355;DHT22;7777;52.254;9.618;2023-11-19T00:47:01;8.00;99.90
15355;DHT22;7777;52.254;9.618;2023-11-19T00:49:29;8.00;99.90
15355;DHT22;7777;52.254;9.618;2023-11-19T00:51:55;8.10;99.90
15355;DHT22;7777;52.254;9.618;2023-11-19T00:54:22;8.10;99.90
15355;DHT22;7777;52.254;9.618;2023-11-19T00:56:51;8.10;99.90
15355;DHT22;7777;52.254;9.618;2023-11-19T00:59:18;8.10;99.90
15355;DHT22;7777;52.254;9.618;2023-11-19T01:01:44;8.10;99.90
15355;DHT22;7777;52.254;9.618;2023-11-19T01:04:10;8.10;99.90
15355;DHT22;7777;52.254;9.618;2023-11-19T01:06:35;8.10;99.90
15355;DHT22;7777;52.254;9.618;2023-11-19T01:09:01;8.20;99.90
15355;DHT22;7777;52.254;9.618;2023-11-19T01:11:27;8.20;99.90
15355;DHT22;7777;52.254;9.618;2023-11-19T01:13:53;8.20;99.90
15355;DHT22;7777;52.254;9.618;2023-11-19T01:16:19;8.20;99.90
15355;DHT22;7777;52.254;9.618;2023-11-19T01:18:49;8.20;99.90
15355;DHT22;7777;52.254;9.618;2023-11-19T01:21:15;8.20;99.90
15355;DHT22;7777;52.254;9.618;2023-11-19T01:23:42;8.30;99.90
15355;DHT22;7777;52.254;9.618;2023-11-19T01:26:12;8.30;99.90
15355;DHT22;7777;52.254;9.618;2023-11-19T01:28:39;8.30;99.90
15355;DHT22;7777;52.254;9.618;2023-11-19T01:31:05;8.40;99.90
15355;DHT22;7777;52.254;9.618;2023-11-19T01:33:36;8.40;99.90
15355;DHT22;7777;52.254;9.618;2023-11-19T01:36:02;8.40;99.90
15355;DHT22;7777;52.254;9.618;2023-11-19T01:38:29;8.40;99.90
15355;DHT22;7777;52.254;9.618;2023-11-19T01:40:57;8.50;99.90
15355;DHT22;7777;52.254;9.618;2023-11-19T01:43:36;8.50;99.90
15355;DHT22;7777;52.254;9.618;2023-11-19T01:46:06;8.50;99.90
15355;DHT22;7777;52.254;9.618;2023-11-19T01:48:37;8.60;99.90
15355;DHT22;7777;52.254;9.618;2023-11-19T01:51:07;8.60;99.90
15355;DHT22;7777;52.254;9.618;2023-11-19T01:53:35;8.60;99.90
15355;DHT22;7777;52.254;9.618;2023-11-19T01:56:05;8.60;99.90
15355;DHT22;7777;52.254;9.618;2023-11-19T01:58:35;8.60;99.90
15355;DHT22;7777;52.254;9.618;2023-11-19T02:01:01;8.70;99.90
15355;DHT22;7777;52.254;9.618;2023-11-19T02:03:31;8.70;99.90
15355;DHT22;7777;52.254;9.618;2023-11-19T02:05:58;8.70;99.90
15355;DHT22;7777;52.254;9.618;2023-11-19T02:08:27;8.70;99.90
15355;DHT22;7777;52.254;9.618;2023-11-19T02:10:53;8.70;99.90
15355;DHT22;7777;52.254;9.618;2023-11-19T02:13:25;8.70;99.90
15355;DHT22;7777;52.254;9.618;2023-11-19T02:15:54;8.80;99.90
15355;DHT22;7777;52.254;9.618;2023-11-19T02:18:25;8.80;99.90
15355;DHT22;7777;52.254;9.618;2023-11-19T02:20:54;8.80;99.90
15355;DHT22;7777;52.254;9.618;2023-11-19T02:23:21;8.80;99.90
15355;DHT22;7777;52.254;9.618;2023-11-19T02:28:31;8.80;99.90
15355;DHT22;7777;52.254;9.618;2023-11-19T02:30:59;8.80;99.90
15355;DHT22;7777;52.254;9.618;2023-11-19T02:33:26;8.80;99.90
15355;DHT22;7777;52.254;9.618;2023-11-19T02:35:52;8.80;99.90
15355;DHT22;7777;52.254;9.618;2023-11-19T02:38:18;8.80;99.90
15355;DHT22;7777;52.254;9.618;2023-11-19T02:40:44;8.90;99.90
15355;DHT22;7777;52.254;9.618;2023-11-19T02:43:10;8.80;99.90
15355;DHT22;7777;52.254;9.618;2023-11-19T02:45:36;8.80;99.90
15355;DHT22;7777;52.254;9.618;2023-11-19T02:48:02;8.90;99.90
15355;DHT22;7777;52.254;9.618;2023-11-19T02:50:34;8.90;99.90
15355;DHT22;7777;52.254;9.618;2023-11-19T02:53:02;8.90;99.90
15355;DHT22;7777;52.254;9.618;2023-11-19T02:55:27;8.90;99.90
15355;DHT22;7777;52.254;9.618;2023-11-19T02:57:56;8.90;99.90
15355;DHT22;7777;52.254;9.618;2023-11-19T03:00:24;8.90;99.90
15355;DHT22;7777;52.254;9.618;2023-11-19T03:02:57;8.90;99.90
15355;DHT22;7777;52.254;9.618;2023-11-19T03:05:30;8.90;99.90
15355;DHT22;7777;52.254;9.618;2023-11-19T03:07:56;8.90;99.90
15355;DHT22;7777;52.254;9.618;2023-11-19T03:10:23;8.90;99.90
15355;DHT22;7777;52.254;9.618;2023-11-19T03:12:49;8.90;99.90
15355;DHT22;7777;52.254;9.618;2023-11-19T03:15:15;8.90;99.90
15355;DHT22;7777;52.254;9.618;2023-11-19T03:17:42;8.90;99.90
15355;DHT22;7777;52.254;9.618;2023-11-19T03:20:11;9.00;99.90
15355;DHT22;7777;52.254;9.618;2023-11-19T03:22:41;9.00;99.90
15355;DHT22;7777;52.254;9.618;2023-11-19T03:25:07;9.00;99.90
15355;DHT22;7777;52.254;9.618;2023-11-19T03:27:37;9.00;99.90
15355;DHT22;7777;52.254;9.618;2023-11-19T03:30:10;9.00;99.90
15355;DHT22;7777;52.254;9.618;2023-11-19T03:32:36;9.00;99.90
15355;DHT22;7777;52.254;9.618;2023-11-19T03:35:04;9.00;99.90
15355;DHT22;7777;52.254;9.618;2023-11-19T03:37:33;9.10;99.90
15355;DHT22;7777;52.254;9.618;2023-11-19T03:39:59;9.10;99.90
15355;DHT22;7777;52.254;9.618;2023-11-19T03:42:28;9.10;99.90
15355;DHT22;7777;52.254;9.618;2023-11-19T03:44:56;9.10;99.90
15355;DHT22;7777;52.254;9.618;2023-11-19T03:47:22;9.10;99.90
15355;DHT22;7777;52.254;9.618;2023-11-19T03:49:49;9.10;99.90
15355;DHT22;7777;52.254;9.618;2023-11-19T03:52:15;9.10;99.90
15355;DHT22;7777;52.254;9.618;2023-11-19T03:54:41;9.20;99.90
15355;DHT22;7777;52.254;9.618;2023-11-19T03:57:08;9.20;99.90
15355;DHT22;7777;52.254;9.618;2023-11-19T03:59:35;9.20;99.90
15355;DHT22;7777;52.254;9.618;2023-11-19T04:02:02;9.20;99.90
15355;DHT22;7777;52.254;9.618;2023-11-19T04:04:28;9.20;99.90
15355;DHT22;7777;52.254;9.618;2023-11-19T04:06:56;9.20;99.90
15355;DHT22;7777;52.254;9.618;2023-11-19T04:09:23;9.20;99.90
15355;DHT22;7777;52.254;9.618;2023-11-19T04:11:49;9.20;99.90
15355;DHT22;7777;52.254;9.618;2023-11-19T04:14:15;9.20;99.90
15355;DHT22;7777;52.254;9.618;2023-11-19T04:16:43;9.20;99.90
15355;DHT22;7777;52.254;9.618;2023-11-19T04:19:12;9.30;99.90
15355;DHT22;7777;52.254;9.618;2023-11-19T04:21:40;9.30;99.90
15355;DHT22;7777;52.254;9.618;2023-11-19T04:24:08;9.30;99.90
15355;DHT22;7777;52.254;9.618;2023-11-19T04:26:42;9.30;99.90
15355;DHT22;7777;52.254;9.618;2023-11-19T04:29:15;9.40;99.90
15355;DHT22;7777;52.254;9.618;2023-11-19T04:31:44;9.40;99.90
15355;DHT22;7777;52.254;9.618;2023-11-19T04:34:11;9.40;99.90
15355;DHT22;7777;52.254;9.618;2023-11-19T04:36:37;9.40;99.90
15355;DHT22;7777;52.254;9.618;2023-11-19T04:39:04;9.50;99.90
15355;DHT22;7777;52.254;9.618;2023-11-19T04:41:35;9.50;99.90
15355;DHT22;7777;52.254;9.618;2023-11-19T04:44:01;9.60;99.90
15355;DHT22;7777;52.254;9.618;2023-11-19T04:46:27;9.60;99.90
15355;DHT22;7777;52.254;9.618;2023-11-19T04:48:53;9.70;99.90
15355;DHT22;7777;52.254;9.618;2023-11-19T04:51:18;9.70;99.90
15355;DHT22;7777;52.254;9.618;2023-11-19T04:53:44;9.70;99.90
15355;DHT22;7777;52.254;9.618;2023-11-19T04:56:11;9.80;99.90
15355;DHT22;7777;52.254;9.618;2023-11-19T04:58:37;9.90;99.90
15355;DHT22;7777;52.254;9.618;2023-11-19T05:01:06;10.00;99.90
15355;DHT22;7777;52.254;9.618;2023-11-19T05:03:32;10.00;99.90
15355;DHT22;7777;52.254;9.618;2023-11-19T05:05:58;10.10;99.90
15355;DHT22;7777;52.254;9.618;2023-11-19T05:08:24;10.20;99.90
15355;DHT22;7777;52.254;9.618;2023-11-19T05:10:50;10.30;99.90
15355;DHT22;7777;52.254;9.618;2023-11-19T05:13:16;10.30;99.90
15355;DHT22;7777;52.254;9.618;2023-11-19T05:15:42;10.40;99.90
15355;DHT22;7777;52.254;9.618;2023-11-19T05:18:08;10.50;99.90
15355;DHT22;7777;52.254;9.618;2023-11-19T05:20:35;10.50;99.90
15355;DHT22;7777;52.254;9.618;2023-11-19T05:23:01;10.50;99.90
15355;DHT22;7777;52.254;9.618;2023-11-19T05:25:27;10.60;99.90
15355;DHT22;7777;52.254;9.618;2023-11-19T05:27:53;10.60;99.90
15355;DHT22;7777;52.254;9.618;2023-11-19T05:30:19;10.70;99.90
15355;DHT22;7777;52.254;9.618;2023-11-19T05:32:44;10.70;99.90
15355;DHT22;7777;52.254;9.618;2023-11-19T05:35:11;10.80;99.90
15355;DHT22;7777;52.254;9.618;2023-11-19T05:37:37;10.90;99.90
15355;DHT22;7777;52.254;9.618;2023-11-19T05:40:03;10.90;99.90
15355;DHT22;7777;52.254;9.618;2023-11-19T05:42:38;11.00;99.90
15355;DHT22;7777;52.254;9.618;2023-11-19T05:45:04;11.10;99.90
15355;DHT22;7777;52.254;9.618;2023-11-19T05:47:33;11.10;99.90
15355;DHT22;7777;52.254;9.618;2023-11-19T05:49:59;11.20;99.90
15355;DHT22;7777;52.254;9.618;2023-11-19T05:52:24;11.20;99.90
15355;DHT22;7777;52.254;9.618;2023-11-19T05:54:50;11.30;99.90
15355;DHT22;7777;52.254;9.618;2023-11-19T05:57:19;11.40;99.90
15355;DHT22;7777;52.254;9.618;2023-11-19T05:59:50;11.40;99.90
15355;DHT22;7777;52.254;9.618;2023-11-19T06:02:17;11.50;99.90
15355;DHT22;7777;52.254;9.618;2023-11-19T06:04:42;11.50;99.90
15355;DHT22;7777;52.254;9.618;2023-11-19T06:07:10;11.50;99.90
15355;DHT22;7777;52.254;9.618;2023-11-19T06:09:35;11.60;99.90
15355;DHT22;7777;52.254;9.618;2023-11-19T06:12:01;11.60;99.90
15355;DHT22;7777;52.254;9.618;2023-11-19T06:14:31;11.60;99.90
15355;DHT22;7777;52.254;9.618;2023-11-19T06:16:57;11.70;99.90
15355;DHT22;7777;52.254;9.618;2023-11-19T06:19:23;11.70;99.90
15355;DHT22;7777;52.254;9.618;2023-11-19T06:21:50;11.70;99.90
15355;DHT22;7777;52.254;9.618;2023-11-19T06:24:16;11.70;99.90
15355;DHT22;7777;52.254;9.618;2023-11-19T06:26:42;11.80;99.90
15355;DHT22;7777;52.254;9.618;2023-11-19T06:29:08;11.80;99.90
15355;DHT22;7777;52.254;9.618;2023-11-19T06:31:34;11.80;99.90
15355;DHT22;7777;52.254;9.618;2023-11-19T06:34:00;11.80;99.90
15355;DHT22;7777;52.254;9.618;2023-11-19T06:36:26;11.90;99.90
15355;DHT22;7777;52.254;9.618;2023-11-19T06:38:52;11.90;99.90
15355;DHT22;7777;52.254;9.618;2023-11-19T06:41:18;11.90;99.90
15355;DHT22;7777;52.254;9.618;2023-11-19T06:43:44;11.90;99.90
15355;DHT22;7777;52.254;9.618;2023-11-19T06:46:16;12.00;99.90
15355;DHT22;7777;52.254;9.618;2023-11-19T06:48:44;11.90;99.90
15355;DHT22;7777;52.254;9.618;2023-11-19T06:51:11;12.00;99.90
15355;DHT22;7777;52.254;9.618;2023-11-19T06:53:36;12.00;99.90
15355;DHT22;7777;52.254;9.618;2023-11-19T06:56:03;11.90;99.90
15355;DHT22;7777;52.254;9.618;2023-11-19T06:58:32;11.90;99.90
15355;DHT22;7777;52.254;9.618;2023-11-19T07:01:01;11.90;99.90
15355;DHT22;7777;52.254;9.618;2023-11-19T07:03:27;11.90;99.90
15355;DHT22;7777;52.254;9.618;2023-11-19T07:05:53;11.90;99.90
15355;DHT22;7777;52.254;9.618;2023-11-19T07:08:20;11.90;99.90
15355;DHT22;7777;52.254;9.618;2023-11-19T07:10:46;11.90;99.90
15355;DHT22;7777;52.254;9.618;2023-11-19T07:13:12;11.90;99.90
15355;DHT22;7777;52.254;9.618;2023-11-19T07:15:38;11.90;99.90
15355;DHT22;7777;52.254;9.618;2023-11-19T07:18:04;11.90;99.90
15355;DHT22;7777;52.254;9.618;2023-11-19T07:20:30;11.90;99.90
15355;DHT22;7777;52.254;9.618;2023-11-19T07:22:56;11.90;99.90
15355;DHT22;7777;52.254;9.618;2023-11-19T07:25:22;11.90;99.90
15355;DHT22;7777;52.254;9.618;2023-11-19T07:27:48;11.90;99.90
15355;DHT22;7777;52.254;9.618;2023-11-19T07:30:14;11.90;99.90
15355;DHT22;7777;52.254;9.618;2023-11-19T07:32:40;11.90;99.90
15355;DHT22;7777;52.254;9.618;2023-11-19T07:35:06;11.90;99.90
15355;DHT22;7777;52.254;9.618;2023-11-19T07:37:34;11.90;99.90
15355;DHT22;7777;52.254;9.618;2023-11-19T07:40:00;11.80;99.90
15355;DHT22;7777;52.254;9.618;2023-11-19T07:42:26;11.80;99.90
15355;DHT22;7777;52.254;9.618;2023-11-19T07:44:54;11.80;99.90
15355;DHT22;7777;52.254;9.618;2023-11-19T07:47:21;11.90;99.90
15355;DHT22;7777;52.254;9.618;2023-11-19T07:49:49;11.90;99.90
15355;DHT22;7777;52.254;9.618;2023-11-19T07:52:16;11.90;99.90
15355;DHT22;7777;52.254;9.618;2023-11-19T07:54:41;11.90;99.90
15355;DHT22;7777;52.254;9.618;2023-11-19T07:57:07;11.80;99.90
15355;DHT22;7777;52.254;9.618;2023-11-19T07:59:33;11.90;99.90
15355;DHT22;7777;52.254;9.618;2023-11-19T08:01:58;11.90;99.90
15355;DHT22;7777;52.254;9.618;2023-11-19T08:04:24;11.90;99.90
15355;DHT22;7777;52.254;9.618;2023-11-19T08:06:50;11.90;99.90
15355;DHT22;7777;52.254;9.618;2023-11-19T08:09:16;11.90;99.90
15355;DHT22;7777;52.254;9.618;2023-11-19T08:11:42;11.90;99.90
15355;DHT22;7777;52.254;9.618;2023-11-19T08:14:08;11.90;99.90
15355;DHT22;7777;52.254;9.618;2023-11-19T08:16:34;11.90;99.90
15355;DHT22;7777;52.254;9.618;2023-11-19T08:19:01;11.90;99.90
15355;DHT22;7777;52.254;9.618;2023-11-19T08:21:28;11.90;99.90
15355;DHT22;7777;52.254;9.618;2023-11-19T08:23:54;11.90;99.90
15355;DHT22;7777;52.254;9.618;2023-11-19T08:26:20;11.90;99.90
15355;DHT22;7777;52.254;9.618;2023-11-19T08:28:45;11.90;99.90
15355;DHT22;7777;52.254;9.618;2023-11-19T08:31:11;11.90;99.90
15355;DHT22;7777;52.254;9.618;2023-11-19T08:33:37;11.90;99.90
15355;DHT22;7777;52.254;9.618;2023-11-19T08:36:03;11.90;99.90
15355;DHT22;7777;52.254;9.618;2023-11-19T08:38:30;11.90;99.90
15355;DHT22;7777;52.254;9.618;2023-11-19T08:40:55;11.90;99.90
15355;DHT22;7777;52.254;9.618;2023-11-19T08:43:27;11.90;99.90
15355;DHT22;7777;52.254;9.618;2023-11-19T08:45:53;11.90;99.90
15355;DHT22;7777;52.254;9.618;2023-11-19T08:48:18;11.90;99.90
15355;DHT22;7777;52.254;9.618;2023-11-19T08:50:44;12.00;99.90
15355;DHT22;7777;52.254;9.618;2023-11-19T08:53:10;12.00;99.90
15355;DHT22;7777;52.254;9.618;2023-11-19T08:55:37;12.00;99.90
15355;DHT22;7777;52.254;9.618;2023-11-19T08:58:02;12.00;99.90
15355;DHT22;7777;52.254;9.618;2023-11-19T09:00:28;12.00;99.90
15355;DHT22;7777;52.254;9.618;2023-11-19T09:02:55;12.00;99.90
15355;DHT22;7777;52.254;9.618;2023-11-19T09:05:20;12.00;99.90
15355;DHT22;7777;52.254;9.618;2023-11-19T09:07:46;12.00;99.90
15355;DHT22;7777;52.254;9.618;2023-11-19T09:10:13;12.00;99.90
15355;DHT22;7777;52.254;9.618;2023-11-19T09:12:42;12.00;99.90
15355;DHT22;7777;52.254;9.618;2023-11-19T09:15:08;11.90;99.90
15355;DHT22;7777;52.254;9.618;2023-11-19T09:17:36;11.90;99.90
15355;DHT22;7777;52.254;9.618;2023-11-19T09:20:02;11.90;99.90
15355;DHT22;7777;52.254;9.618;2023-11-19T09:22:29;11.90;99.90
15355;DHT22;7777;52.254;9.618;2023-11-19T09:24:54;11.90;99.90
15355;DHT22;7777;52.254;9.618;2023-11-19T09:27:20;11.90;99.90
15355;DHT22;7777;52.254;9.618;2023-11-19T09:29:46;11.90;99.90
15355;DHT22;7777;52.254;9.618;2023-11-19T09:32:14;11.90;99.90
15355;DHT22;7777;52.254;9.618;2023-11-19T09:34:39;11.90;99.90
15355;DHT22;7777;52.254;9.618;2023-11-19T09:37:05;11.90;99.90
15355;DHT22;7777;52.254;9.618;2023-11-19T09:39:33;11.90;99.90
15355;DHT22;7777;52.254;9.618;2023-11-19T09:41:58;11.90;99.90
15355;DHT22;7777;52.254;9.618;2023-11-19T09:44:25;11.90;99.90
15355;DHT22;7777;52.254;9.618;2023-11-19T09:46:52;12.00;99.90
15355;DHT22;7777;52.254;9.618;2023-11-19T09:49:21;12.00;99.90
15355;DHT22;7777;52.254;9.618;2023-11-19T09:51:49;12.00;99.90
15355;DHT22;7777;52.254;9.618;2023-11-19T09:54:15;12.00;99.90
15355;DHT22;7777;52.254;9.618;2023-11-19T09:56:40;12.00;99.90
15355;DHT22;7777;52.254;9.618;2023-11-19T09:59:06;12.10;99.90
15355;DHT22;7777;52.254;9.618;2023-11-19T10:01:35;12.10;99.90
15355;DHT22;7777;52.254;9.618;2023-11-19T10:04:01;12.10;99.90
15355;DHT22;7777;52.254;9.618;2023-11-19T10:06:28;12.10;99.90
15355;DHT22;7777;52.254;9.618;2023-11-19T10:08:54;12.10;99.90
15355;DHT22;7777;52.254;9.618;2023-11-19T10:11:21;12.20;99.90
15355;DHT22;7777;52.254;9.618;2023-11-19T10:13:46;12.20;99.90
15355;DHT22;7777;52.254;9.618;2023-11-19T10:16:13;12.20;99.90
15355;DHT22;7777;52.254;9.618;2023-11-19T10:21:12;12.30;99.90
15355;DHT22;7777;52.254;9.618;2023-11-19T10:23:52;12.30;99.90
15355;DHT22;7777;52.254;9.618;2023-11-19T10:26:19;12.30;99.90
15355;DHT22;7777;52.254;9.618;2023-11-19T10:28:46;12.30;99.90
15355;DHT22;7777;52.254;9.618;2023-11-19T10:31:17;12.30;99.90
15355;DHT22;7777;52.254;9.618;2023-11-19T10:33:45;12.30;99.90
15355;DHT22;7777;52.254;9.618;2023-11-19T10:36:12;12.30;99.90
15355;DHT22;7777;52.254;9.618;2023-11-19T10:38:40;12.30;99.90
15355;DHT22;7777;52.254;9.618;2023-11-19T10:41:06;12.30;99.90
15355;DHT22;7777;52.254;9.618;2023-11-19T10:43:43;12.30;99.90
15355;DHT22;7777;52.254;9.618;2023-11-19T10:46:13;12.40;99.90
15355;DHT22;7777;52.254;9.618;2023-11-19T10:48:39;12.30;99.90
15355;DHT22;7777;52.254;9.618;2023-11-19T10:51:08;12.30;99.90
15355;DHT22;7777;52.254;9.618;2023-11-19T10:53:39;12.30;99.90
15355;DHT22;7777;52.254;9.618;2023-11-19T10:56:10;12.40;99.90
15355;DHT22;7777;52.254;9.618;2023-11-19T10:58:37;12.30;99.90
15355;DHT22;7777;52.254;9.618;2023-11-19T11:01:13;12.40;99.90
15355;DHT22;7777;52.254;9.618;2023-11-19T11:03:47;12.40;99.90
15355;DHT22;7777;52.254;9.618;2023-11-19T11:06:16;12.40;99.90
15355;DHT22;7777;52.254;9.618;2023-11-19T11:08:43;12.40;99.90
15355;DHT22;7777;52.254;9.618;2023-11-19T11:11:12;12.40;99.90
15355;DHT22;7777;52.254;9.618;2023-11-19T11:13:41;12.50;99.90
15355;DHT22;7777;52.254;9.618;2023-11-19T11:16:08;12.40;99.90
15355;DHT22;7777;52.254;9.618;2023-11-19T11:18:33;12.50;99.90
15355;DHT22;7777;52.254;9.618;2023-11-19T11:23:56;12.50;99.90
15355;DHT22;7777;52.254;9.618;2023-11-19T11:29:37;12.50;99.90
15355;DHT22;7777;52.254;9.618;2023-11-19T11:35:40;12.50;99.90
15355;DHT22;7777;52.254;9.618;2023-11-19T11:38:21;12.50;99.90
15355;DHT22;7777;52.254;9.618;2023-11-19T11:41:15;12.50;99.90
15355;DHT22;7777;52.254;9.618;2023-11-19T11:43:46;12.50;99.90
15355;DHT22;7777;52.254;9.618;2023-11-19T11:49:03;12.60;99.90
15355;DHT22;7777;52.254;9.618;2023-11-19T11:54:25;12.60;99.90
15355;DHT22;7777;52.254;9.618;2023-11-19T11:57:10;12.60;99.90
15355;DHT22;7777;52.254;9.618;2023-11-19T11:59:45;12.70;99.90
15355;DHT22;7777;52.254;9.618;2023-11-19T12:02:13;12.70;99.90
15355;DHT22;7777;52.254;9.618;2023-11-19T12:04:42;12.70;99.90
15355;DHT22;7777;52.254;9.618;2023-11-19T12:07:21;12.70;99.90
15355;DHT22;7777;52.254;9.618;2023-11-19T12:10:04;12.70;99.90
15355;DHT22;7777;52.254;9.618;2023-11-19T12:12:33;12.70;99.90
15355;DHT22;7777;52.254;9.618;2023-11-19T12:15:06;12.70;99.90
15355;DHT22;7777;52.254;9.618;2023-11-19T12:17:54;12.70;99.90
15355;DHT22;7777;52.254;9.618;2023-11-19T12:20:22;12.80;99.90
15355;DHT22;7777;52.254;9.618;2023-11-19T12:22:49;12.80;99.90
15355;DHT22;7777;52.254;9.618;2023-11-19T12:25:18;12.80;99.90
15355;DHT22;7777;52.254;9.618;2023-11-19T12:27:47;12.80;99.90
15355;DHT22;7777;52.254;9.618;2023-11-19T12:30:17;12.80;99.90
15355;DHT22;7777;52.254;9.618;2023-11-19T12:32:46;12.80;99.90
15355;DHT22;7777;52.254;9.618;2023-11-19T12:35:13;12.80;99.90
15355;DHT22;7777;52.254;9.618;2023-11-19T12:37:46;12.90;99.90
15355;DHT22;7777;52.254;9.618;2023-11-19T12:40:17;12.90;99.90
15355;DHT22;7777;52.254;9.618;2023-11-19T12:42:48;12.90;99.90
15355;DHT22;7777;52.254;9.618;2023-11-19T12:45:14;12.80;99.90
15355;DHT22;7777;52.254;9.618;2023-11-19T12:47:44;12.90;99.90
15355;DHT22;7777;52.254;9.618;2023-11-19T12:50:13;12.90;99.90
15355;DHT22;7777;52.254;9.618;2023-11-19T12:52:39;12.90;99.90
15355;DHT22;7777;52.254;9.618;2023-11-19T12:55:24;12.90;99.90
15355;DHT22;7777;52.254;9.618;2023-11-19T12:57:51;12.80;99.90
15355;DHT22;7777;52.254;9.618;2023-11-19T13:00:21;12.80;99.90
15355;DHT22;7777;52.254;9.618;2023-11-19T13:02:53;12.80;99.90
15355;DHT22;7777;52.254;9.618;2023-11-19T13:05:34;12.80;99.90
15355;DHT22;7777;52.254;9.618;2023-11-19T13:08:06;12.80;99.90
15355;DHT22;7777;52.254;9.618;2023-11-19T13:10:49;12.70;99.90
15355;DHT22;7777;52.254;9.618;2023-11-19T13:13:16;12.70;99.90
15355;DHT22;7777;52.254;9.618;2023-11-19T13:15:42;12.70;99.90
15355;DHT22;7777;52.254;9.618;2023-11-19T13:18:10;12.70;99.90
15355;DHT22;7777;52.254;9.618;2023-11-19T13:20:37;12.70;99.90
15355;DHT22;7777;52.254;9.618;2023-11-19T13:23:04;12.60;99.90
15355;DHT22;7777;52.254;9.618;2023-11-19T13:25:32;12.60;99.90
15355;DHT22;7777;52.254;9.618;2023-11-19T13:27:59;12.60;99.90
15355;DHT22;7777;52.254;9.618;2023-11-19T13:30:25;12.60;99.90
15355;DHT22;7777;52.254;9.618;2023-11-19T13:32:52;12.60;99.90
15355;DHT22;7777;52.254;9.618;2023-11-19T13:35:20;12.60;99.90
15355;DHT22;7777;52.254;9.618;2023-11-19T13:37:46;12.50;99.90
15355;DHT22;7777;52.254;9.618;2023-11-19T13:40:12;12.50;99.90
15355;DHT22;7777;52.254;9.618;2023-11-19T13:42:44;12.50;99.90
15355;DHT22;7777;52.254;9.618;2023-11-19T13:45:12;12.50;99.90
15355;DHT22;7777;52.254;9.618;2023-11-19T13:47:40;12.50;99.90
15355;DHT22;7777;52.254;9.618;2023-11-19T13:50:11;12.50;99.90
15355;DHT22;7777;52.254;9.618;2023-11-19T13:52:39;12.50;99.90
15355;DHT22;7777;52.254;9.618;2023-11-19T13:55:08;12.50;99.90
15355;DHT22;7777;52.254;9.618;2023-11-19T13:57:36;12.50;99.90
15355;DHT22;7777;52.254;9.618;2023-11-19T14:00:03;12.50;99.90
15355;DHT22;7777;52.254;9.618;2023-11-19T14:02:32;12.50;99.90
15355;DHT22;7777;52.254;9.618;2023-11-19T14:04:59;12.50;99.90
15355;DHT22;7777;52.254;9.618;2023-11-19T14:07:25;12.50;99.90
15355;DHT22;7777;52.254;9.618;2023-11-19T14:09:51;12.50;99.90
15355;DHT22;7777;52.254;9.618;2023-11-19T14:12:16;12.50;99.90
15355;DHT22;7777;52.254;9.618;2023-11-19T14:14:43;12.50;99.90
15355;DHT22;7777;52.254;9.618;2023-11-19T14:17:09;12.50;99.90
15355;DHT22;7777;52.254;9.618;2023-11-19T14:19:36;12.50;99.90
15355;DHT22;7777;52.254;9.618;2023-11-19T14:22:03;12.50;99.90
15355;DHT22;7777;52.254;9.618;2023-11-19T14:24:29;12.50;99.90
15355;DHT22;7777;52.254;9.618;2023-11-19T14:26:55;12.50;99.90
15355;DHT22;7777;52.254;9.618;2023-11-19T14:29:23;12.50;99.90
15355;DHT22;7777;52.254;9.618;2023-11-19T14:31:49;12.50;99.90
15355;DHT22;7777;52.254;9.618;2023-11-19T14:34:14;12.50;99.90
15355;DHT22;7777;52.254;9.618;2023-11-19T14:36:41;12.50;99.90
15355;DHT22;7777;52.254;9.618;2023-11-19T14:39:07;12.50;99.90
15355;DHT22;7777;52.254;9.618;2023-11-19T14:41:33;12.50;99.90
15355;DHT22;7777;52.254;9.618;2023-11-19T14:43:58;12.50;99.90
15355;DHT22;7777;52.254;9.618;2023-11-19T14:46:24;12.50;99.90
15355;DHT22;7777;52.254;9.618;2023-11-19T14:48:50;12.50;99.90
15355;DHT22;7777;52.254;9.618;2023-11-19T14:51:16;12.50;99.90
15355;DHT22;7777;52.254;9.618;2023-11-19T14:53:41;12.50;99.90
15355;DHT22;7777;52.254;9.618;2023-11-19T14:56:12;12.50;99.90
15355;DHT22;7777;52.254;9.618;2023-11-19T14:58:41;12.60;99.90
15355;DHT22;7777;52.254;9.618;2023-11-19T15:01:11;12.50;99.90
15355;DHT22;7777;52.254;9.618;2023-11-19T15:03:37;12.50;99.90
15355;DHT22;7777;52.254;9.618;2023-11-19T15:06:05;12.50;99.90
15355;DHT22;7777;52.254;9.618;2023-11-19T15:08:32;12.50;99.90
15355;DHT22;7777;52.254;9.618;2023-11-19T15:10:58;12.50;99.90
15355;DHT22;7777;52.254;9.618;2023-11-19T15:13:25;12.50;99.90
15355;DHT22;7777;52.254;9.618;2023-11-19T15:15:50;12.50;99.90
15355;DHT22;7777;52.254;9.618;2023-11-19T15:18:18;12.60;99.90
15355;DHT22;7777;52.254;9.618;2023-11-19T15:20:44;12.50;99.90
15355;DHT22;7777;52.254;9.618;2023-11-19T15:23:13;12.50;99.90
15355;DHT22;7777;52.254;9.618;2023-11-19T15:25:39;12.50;99.90
15355;DHT22;7777;52.254;9.618;2023-11-19T15:28:05;12.50;99.90
15355;DHT22;7777;52.254;9.618;2023-11-19T15:30:30;12.50;99.90
15355;DHT22;7777;52.254;9.618;2023-11-19T15:32:56;12.50;99.90
15355;DHT22;7777;52.254;9.618;2023-11-19T15:35:22;12.50;99.90
15355;DHT22;7777;52.254;9.618;2023-11-19T15:37:48;12.50;99.90
15355;DHT22;7777;52.254;9.618;2023-11-19T15:40:14;12.50;99.90
15355;DHT22;7777;52.254;9.618;2023-11-19T15:42:40;12.50;99.90
15355;DHT22;7777;52.254;9.618;2023-11-19T15:45:06;12.50;99.90
15355;DHT22;7777;52.254;9.618;2023-11-19T15:47:33;12.50;99.90
15355;DHT22;7777;52.254;9.618;2023-11-19T15:50:02;12.50;99.90
15355;DHT22;7777;52.254;9.618;2023-11-19T15:52:29;12.50;99.90
15355;DHT22;7777;52.254;9.618;2023-11-19T15:54:56;12.50;99.90
15355;DHT22;7777;52.254;9.618;2023-11-19T15:57:22;12.50;99.90
15355;DHT22;7777;52.254;9.618;2023-11-19T15:59:48;12.50;99.90
15355;DHT22;7777;52.254;9.618;2023-11-19T16:02:14;12.50;99.90
15355;DHT22;7777;52.254;9.618;2023-11-19T16:04:41;12.50;99.90
15355;DHT22;7777;52.254;9.618;2023-11-19T16:07:06;12.50;99.90
15355;DHT22;7777;52.254;9.618;2023-11-19T16:09:32;12.50;99.90
15355;DHT22;7777;52.254;9.618;2023-11-19T16:11:58;12.50;99.90